Time,TemperatureF,DewpointF,PressureIn,WindDirection,WindDirectionDegrees,WindSpeedMPH,WindSpeedGustMPH,Humidity,HourlyPrecipIn,Conditions,Clouds,dailyrainin,SolarRadiationWatts/m^2,SoftwareType,DateUTC
2013-02-14 00:00:00,38.4,33.1,29.84,WNW,288,0.0,-999.0,81,0.00,,,0.37,0,Wunderground v.1.15,2013-02-14 05:00:00,
2013-02-14 00:01:00,38.3,33.3,29.84,WNW,288,0.0,-999.0,82,0.00,,,0.00,0,Wunderground v.1.15,2013-02-14 05:01:00,
2013-02-14 00:02:00,38.3,33.3,29.84,WNW,288,0.0,-999.0,82,0.00,,,0.00,0,Wunderground v.1.15,2013-02-14 05:02:00,
2013-02-14 00:06:00,38.1,33.1,29.84,WNW,288,0.0,-999.0,82,0.00,,,0.00,0,Wunderground v.1.15,2013-02-14 05:06:00,
2013-02-14 00:12:00,37.8,32.8,29.84,WNW,288,0.0,-999.0,82,0.00,,,0.00,0,Wunderground v.1.15,2013-02-14 05:12:00,
2013-02-14 00:17:00,37.5,32.8,29.84,WNW,288,0.0,-999.0,83,0.00,,,0.00,0,Wunderground v.1.15,2013-02-14 05:17:00,
2013-02-14 00:23:00,37.2,32.5,29.84,WNW,288,0.0,-999.0,83,0.00,,,0.00,0,Wunderground v.1.15,2013-02-14 05:23:00,
2013-02-14 00:28:00,37.0,32.3,29.85,WNW,288,0.0,-999.0,83,0.00,,,0.00,0,Wunderground v.1.15,2013-02-14 05:28:00,
2013-02-14 00:33:00,36.8,32.1,29.85,WNW,288,0.0,-999.0,83,0.00,,,0.00,0,Wunderground v.1.15,2013-02-14 05:33:00,
2013-02-14 00:39:00,36.8,32.1,29.85,WNW,288,0.0,-999.0,83,0.00,,,0.00,0,Wunderground v.1.15,2013-02-14 05:39:00,
2013-02-14 00:44:00,36.8,32.1,29.86,WNW,288,0.0,-999.0,83,0.00,,,0.00,0,Wunderground v.1.15,2013-02-14 05:44:00,
2013-02-14 00:49:00,36.7,32.0,29.85,WNW,288,0.0,-999.0,83,0.00,,,0.00,0,Wunderground v.1.15,2013-02-14 05:49:00,
2013-02-14 00:55:00,36.5,32.1,29.85,WSW,237,0.0,-999.0,84,0.00,,,0.00,0,Wunderground v.1.15,2013-02-14 05:55:00,
2013-02-14 01:00:00,36.6,32.2,29.86,WNW,300,1.0,-999.0,84,0.00,,,0.00,0,Wunderground v.1.15,2013-02-14 06:00:00,
2013-02-14 01:05:00,36.6,32.2,29.86,WNW,300,1.0,-999.0,84,0.00,,,0.00,0,Wunderground v.1.15,2013-02-14 06:05:00,
2013-02-14 01:10:00,36.6,32.2,29.86,WNW,300,0.0,-999.0,84,0.00,,,0.00,0,Wunderground v.1.15,2013-02-14 06:10:00,
2013-02-14 01:16:00,36.5,32.1,29.87,WNW,300,0.0,-999.0,84,0.00,,,0.00,0,Wunderground v.1.15,2013-02-14 06:16:00,
2013-02-14 01:21:00,36.4,32.0,29.87,WNW,300,0.0,-999.0,84,0.00,,,0.00,0,Wunderground v.1.15,2013-02-14 06:21:00,
2013-02-14 01:27:00,36.2,31.8,29.87,WNW,300,0.0,-999.0,84,0.00,,,0.00,0,Wunderground v.1.15,2013-02-14 06:27:00,
2013-02-14 01:32:00,36.2,31.8,29.88,WNW,300,0.0,-999.0,84,0.00,,,0.00,0,Wunderground v.1.15,2013-02-14 06:32:00,
2013-02-14 01:37:00,36.1,31.7,29.88,WNW,300,0.0,-999.0,84,0.00,,,0.00,0,Wunderground v.1.15,2013-02-14 06:37:00,
2013-02-14 01:43:00,35.9,31.5,29.88,WNW,300,0.0,-999.0,84,0.00,,,0.00,0,Wunderground v.1.15,2013-02-14 06:43:00,
2013-02-14 01:48:00,35.7,31.6,29.88,WNW,300,0.0,-999.0,85,0.00,,,0.00,0,Wunderground v.1.15,2013-02-14 06:48:00,
2013-02-14 01:53:00,35.6,31.5,29.88,WNW,300,0.0,-999.0,85,0.00,,,0.00,0,Wunderground v.1.15,2013-02-14 06:53:00,
2013-02-14 01:58:00,35.4,31.3,29.88,WNW,300,0.0,-999.0,85,0.00,,,0.00,0,Wunderground v.1.15,2013-02-14 06:58:00,
2013-02-14 02:04:00,35.2,31.1,29.88,WNW,300,0.0,-999.0,85,0.00,,,0.00,0,Wunderground v.1.15,2013-02-14 07:04:00,
2013-02-14 02:09:00,35.1,31.0,29.88,WNW,300,0.0,-999.0,85,0.00,,,0.00,0,Wunderground v.1.15,2013-02-14 07:09:00,
2013-02-14 02:15:00,34.9,31.1,29.87,WNW,300,0.0,-999.0,86,0.00,,,0.00,0,Wunderground v.1.15,2013-02-14 07:15:00,
2013-02-14 02:20:00,34.7,30.9,29.87,WNW,300,0.0,-999.0,86,0.00,,,0.00,0,Wunderground v.1.15,2013-02-14 07:20:00,
2013-02-14 02:25:00,34.7,30.9,29.88,WNW,300,0.0,-999.0,86,0.00,,,0.00,0,Wunderground v.1.15,2013-02-14 07:25:00,
2013-02-14 02:30:00,34.8,31.0,29.88,WNW,300,0.0,-999.0,86,0.00,,,0.00,0,Wunderground v.1.15,2013-02-14 07:30:00,
2013-02-14 02:36:00,34.8,31.0,29.88,WNW,300,0.0,-999.0,86,0.00,,,0.00,0,Wunderground v.1.15,2013-02-14 07:36:00,
2013-02-14 02:41:00,34.9,31.1,29.88,WNW,300,0.0,-999.0,86,0.00,,,0.00,0,Wunderground v.1.15,2013-02-14 07:41:00,
2013-02-14 02:47:00,34.9,31.1,29.88,WNW,300,0.0,-999.0,86,0.00,,,0.00,0,Wunderground v.1.15,2013-02-14 07:47:00,
2013-02-14 02:52:00,34.8,31.0,29.88,WNW,300,0.0,-999.0,86,0.00,,,0.00,0,Wunderground v.1.15,2013-02-14 07:52:00,
2013-02-14 02:58:00,34.6,30.8,29.89,WNW,300,0.0,-999.0,86,0.00,,,0.00,0,Wunderground v.1.15,2013-02-14 07:58:00,
2013-02-14 03:03:00,34.4,30.6,29.89,WNW,300,0.0,-999.0,86,0.00,,,0.00,0,Wunderground v.1.15,2013-02-14 08:03:00,
2013-02-14 03:08:00,34.4,30.6,29.89,WNW,300,0.0,-999.0,86,0.00,,,0.00,0,Wunderground v.1.15,2013-02-14 08:08:00,
2013-02-14 03:13:00,34.4,30.6,29.89,WNW,300,0.0,-999.0,86,0.00,,,0.00,0,Wunderground v.1.15,2013-02-14 08:13:00,
2013-02-14 03:19:00,34.2,30.4,29.89,WNW,300,0.0,-999.0,86,0.00,,,0.00,0,Wunderground v.1.15,2013-02-14 08:19:00,
2013-02-14 03:24:00,34.1,30.6,29.90,WNW,300,0.0,-999.0,87,0.00,,,0.00,0,Wunderground v.1.15,2013-02-14 08:24:00,
2013-02-14 03:29:00,34.0,30.5,29.90,WNW,300,0.0,-999.0,87,0.00,,,0.00,0,Wunderground v.1.15,2013-02-14 08:29:00,
2013-02-14 03:35:00,33.8,30.3,29.90,WNW,300,0.0,-999.0,87,0.00,,,0.00,0,Wunderground v.1.15,2013-02-14 08:35:00,
2013-02-14 03:40:00,33.7,30.2,29.91,WNW,300,0.0,-999.0,87,0.00,,,0.00,0,Wunderground v.1.15,2013-02-14 08:40:00,
2013-02-14 03:45:00,33.4,29.9,29.91,WNW,300,0.0,-999.0,87,0.00,,,0.00,0,Wunderground v.1.15,2013-02-14 08:45:00,
2013-02-14 03:51:00,33.3,29.8,29.91,WNW,300,0.0,-999.0,87,0.00,,,0.00,0,Wunderground v.1.15,2013-02-14 08:51:00,
2013-02-14 03:56:00,33.1,29.7,29.91,WNW,300,0.0,-999.0,87,0.00,,,0.00,0,Wunderground v.1.15,2013-02-14 08:56:00,
2013-02-14 04:01:00,32.9,29.5,29.91,WNW,300,0.0,-999.0,87,0.00,,,0.00,0,Wunderground v.1.15,2013-02-14 09:01:00,
2013-02-14 04:07:00,32.8,29.4,29.91,WNW,300,0.0,-999.0,87,0.00,,,0.00,0,Wunderground v.1.15,2013-02-14 09:07:00,
2013-02-14 04:12:00,32.5,29.3,29.91,WNW,300,0.0,-999.0,88,0.00,,,0.00,0,Wunderground v.1.15,2013-02-14 09:12:00,
2013-02-14 04:18:00,32.3,29.1,29.91,WNW,300,0.0,-999.0,88,0.00,,,0.00,0,Wunderground v.1.15,2013-02-14 09:18:00,
2013-02-14 04:23:00,32.1,28.9,29.92,WNW,300,0.0,-999.0,88,0.00,,,0.00,0,Wunderground v.1.15,2013-02-14 09:23:00,
2013-02-14 04:29:00,32.0,28.8,29.91,WNW,300,0.0,-999.0,88,0.00,,,0.00,0,Wunderground v.1.15,2013-02-14 09:29:00,
2013-02-14 04:34:00,31.8,28.7,29.92,WNW,300,0.0,-999.0,88,0.00,,,0.00,0,Wunderground v.1.15,2013-02-14 09:34:00,
2013-02-14 04:40:00,31.6,28.5,29.92,WNW,300,0.0,-999.0,88,0.00,,,0.00,0,Wunderground v.1.15,2013-02-14 09:40:00,
2013-02-14 04:45:00,31.5,28.4,29.92,WNW,300,0.0,-999.0,88,0.00,,,0.00,0,Wunderground v.1.15,2013-02-14 09:45:00,
2013-02-14 04:50:00,31.4,28.5,29.92,WNW,300,0.0,-999.0,89,0.00,,,0.00,0,Wunderground v.1.15,2013-02-14 09:50:00,
2013-02-14 04:56:00,31.3,28.4,29.93,WNW,300,0.0,-999.0,89,0.00,,,0.00,0,Wunderground v.1.15,2013-02-14 09:56:00,
2013-02-14 05:01:00,31.2,28.3,29.93,WNW,300,0.0,-999.0,89,0.00,,,0.00,0,Wunderground v.1.15,2013-02-14 10:01:00,
2013-02-14 05:07:00,31.1,28.2,29.93,WNW,300,0.0,-999.0,89,0.00,,,0.00,0,Wunderground v.1.15,2013-02-14 10:07:00,
2013-02-14 05:12:00,31.0,28.1,29.93,WNW,300,0.0,-999.0,89,0.00,,,0.00,0,Wunderground v.1.15,2013-02-14 10:12:00,
2013-02-14 05:17:00,31.0,28.1,29.93,WNW,300,0.0,-999.0,89,0.00,,,0.00,0,Wunderground v.1.15,2013-02-14 10:17:00,
2013-02-14 05:23:00,30.8,27.9,29.93,WNW,300,0.0,-999.0,89,0.00,,,0.00,0,Wunderground v.1.15,2013-02-14 10:23:00,
2013-02-14 05:29:00,30.7,27.8,29.93,WNW,300,0.0,-999.0,89,0.00,,,0.00,0,Wunderground v.1.15,2013-02-14 10:29:00,
2013-02-14 05:34:00,30.6,27.7,29.94,WNW,300,0.0,-999.0,89,0.00,,,0.00,0,Wunderground v.1.15,2013-02-14 10:34:00,
2013-02-14 05:39:00,30.5,27.6,29.94,WNW,300,0.0,-999.0,89,0.00,,,0.00,0,Wunderground v.1.15,2013-02-14 10:39:00,
2013-02-14 05:45:00,30.4,27.5,29.94,WNW,300,0.0,-999.0,89,0.00,,,0.00,0,Wunderground v.1.15,2013-02-14 10:45:00,
2013-02-14 05:50:00,30.3,27.4,29.94,WNW,300,0.0,-999.0,89,0.00,,,0.00,0,Wunderground v.1.15,2013-02-14 10:50:00,
2013-02-14 05:55:00,30.2,27.6,29.95,WNW,300,0.0,-999.0,90,0.00,,,0.00,0,Wunderground v.1.15,2013-02-14 10:55:00,
2013-02-14 06:01:00,30.1,27.5,29.95,WNW,300,0.0,-999.0,90,0.00,,,0.00,0,Wunderground v.1.15,2013-02-14 11:01:00,
2013-02-14 06:06:00,30.1,27.5,29.95,WNW,300,0.0,-999.0,90,0.00,,,0.00,0,Wunderground v.1.15,2013-02-14 11:06:00,
2013-02-14 06:11:00,30.0,27.4,29.95,WNW,300,0.0,-999.0,90,0.00,,,0.00,0,Wunderground v.1.15,2013-02-14 11:11:00,
2013-02-14 06:17:00,30.0,27.4,29.96,WNW,300,0.0,-999.0,90,0.00,,,0.00,0,Wunderground v.1.15,2013-02-14 11:17:00,
2013-02-14 06:22:00,29.9,27.3,29.97,WNW,300,0.0,-999.0,90,0.00,,,0.00,0,Wunderground v.1.15,2013-02-14 11:22:00,
2013-02-14 06:28:00,29.7,27.1,29.97,WNW,300,0.0,-999.0,90,0.00,,,0.00,0,Wunderground v.1.15,2013-02-14 11:28:00,
2013-02-14 06:33:00,29.7,27.1,29.97,WNW,300,0.0,-999.0,90,0.00,,,0.00,0,Wunderground v.1.15,2013-02-14 11:33:00,
2013-02-14 06:38:00,29.6,27.0,29.97,WNW,300,0.0,-999.0,90,0.00,,,0.00,0,Wunderground v.1.15,2013-02-14 11:38:00,
2013-02-14 06:44:00,29.5,26.9,29.97,WNW,300,0.0,-999.0,90,0.00,,,0.00,0,Wunderground v.1.15,2013-02-14 11:44:00,
2013-02-14 06:49:00,29.5,26.9,29.98,WNW,300,0.0,-999.0,90,0.00,,,0.00,0,Wunderground v.1.15,2013-02-14 11:49:00,
2013-02-14 06:54:00,29.4,26.8,29.98,WNW,300,0.0,-999.0,90,0.00,,,0.00,0,Wunderground v.1.15,2013-02-14 11:54:00,
2013-02-14 06:59:00,29.4,26.8,29.98,WNW,300,0.0,-999.0,90,0.00,,,0.00,0,Wunderground v.1.15,2013-02-14 11:59:00,
2013-02-14 07:05:00,29.3,26.7,29.98,WNW,300,0.0,-999.0,90,0.00,,,0.00,0,Wunderground v.1.15,2013-02-14 12:05:00,
2013-02-14 07:10:00,29.2,26.6,29.98,WNW,300,0.0,-999.0,90,0.00,,,0.00,0,Wunderground v.1.15,2013-02-14 12:10:00,
2013-02-14 07:16:00,29.2,26.6,29.99,WNW,300,0.0,-999.0,90,0.00,,,0.00,7,Wunderground v.1.15,2013-02-14 12:16:00,
2013-02-14 07:22:00,29.1,26.5,29.99,WNW,300,0.0,-999.0,90,0.00,,,0.00,11,Wunderground v.1.15,2013-02-14 12:22:00,
2013-02-14 07:27:00,29.1,26.5,29.99,WNW,300,0.0,-999.0,90,0.00,,,0.00,12,Wunderground v.1.15,2013-02-14 12:27:00,
2013-02-14 07:32:00,29.0,26.4,29.99,WNW,300,0.0,-999.0,90,0.00,,,0.00,16,Wunderground v.1.15,2013-02-14 12:32:00,
2013-02-14 07:37:00,29.0,26.7,30.00,WNW,300,0.0,-999.0,91,0.00,,,0.00,18,Wunderground v.1.15,2013-02-14 12:37:00,
2013-02-14 07:43:00,29.0,26.7,30.00,WNW,300,0.0,-999.0,91,0.00,,,0.00,19,Wunderground v.1.15,2013-02-14 12:43:00,
2013-02-14 07:48:00,29.0,26.7,30.01,WNW,300,0.0,-999.0,91,0.00,,,0.00,19,Wunderground v.1.15,2013-02-14 12:48:00,
2013-02-14 07:53:00,29.1,26.8,30.01,WNW,300,0.0,-999.0,91,0.00,,,0.00,23,Wunderground v.1.15,2013-02-14 12:53:00,
2013-02-14 07:58:00,29.3,27.0,30.01,WNW,300,0.0,-999.0,91,0.00,,,0.00,28,Wunderground v.1.15,2013-02-14 12:58:00,
2013-02-14 08:04:00,29.4,27.1,30.01,WNW,300,0.0,-999.0,91,0.00,,,0.00,30,Wunderground v.1.15,2013-02-14 13:04:00,
2013-02-14 08:09:00,29.7,27.4,30.01,WNW,300,0.0,-999.0,91,0.00,,,0.00,26,Wunderground v.1.15,2013-02-14 13:09:00,
2013-02-14 08:14:00,29.9,27.6,30.01,WNW,300,0.0,-999.0,91,0.00,,,0.00,62,Wunderground v.1.15,2013-02-14 13:14:00,
2013-02-14 08:20:00,30.2,27.9,30.02,WNW,300,0.0,-999.0,91,0.00,,,0.00,33,Wunderground v.1.15,2013-02-14 13:20:00,
2013-02-14 08:25:00,30.6,28.6,30.03,WNW,300,0.0,-999.0,92,0.00,,,0.00,130,Wunderground v.1.15,2013-02-14 13:25:00,
2013-02-14 08:30:00,31.0,28.9,30.03,WNW,300,0.0,-999.0,92,0.00,,,0.00,141,Wunderground v.1.15,2013-02-14 13:30:00,
2013-02-14 08:36:00,31.7,29.6,30.04,WNW,300,0.0,-999.0,92,0.00,,,0.00,105,Wunderground v.1.15,2013-02-14 13:36:00,
2013-02-14 08:41:00,32.4,30.3,30.05,WNW,300,0.0,-999.0,92,0.00,,,0.00,216,Wunderground v.1.15,2013-02-14 13:41:00,
2013-02-14 08:46:00,34.1,32.0,30.05,WNW,300,0.0,-999.0,92,0.00,,,0.00,251,Wunderground v.1.15,2013-02-14 13:46:00,
2013-02-14 08:52:00,35.3,33.2,30.06,WNW,300,0.0,-999.0,92,0.00,,,0.00,297,Wunderground v.1.15,2013-02-14 13:52:00,
2013-02-14 08:57:00,36.4,33.7,30.05,WNW,300,0.0,-999.0,90,0.00,,,0.00,329,Wunderground v.1.15,2013-02-14 13:57:00,
2013-02-14 09:03:00,37.6,34.4,30.05,WNW,300,0.0,-999.0,88,0.00,,,0.00,364,Wunderground v.1.15,2013-02-14 14:03:00,
2013-02-14 09:08:00,38.0,33.9,30.06,WNW,300,0.0,-999.0,85,0.00,,,0.00,380,Wunderground v.1.15,2013-02-14 14:08:00,
2013-02-14 09:14:00,39.1,34.7,30.06,WNW,300,0.0,-999.0,84,0.00,,,0.00,403,Wunderground v.1.15,2013-02-14 14:14:00,
2013-02-14 09:19:00,39.5,33.8,30.06,WNW,300,0.0,-999.0,80,0.00,,,0.00,425,Wunderground v.1.15,2013-02-14 14:19:00,
2013-02-14 09:24:00,39.8,31.2,30.06,North,355,1.0,-999.0,71,0.00,,,0.00,446,Wunderground v.1.15,2013-02-14 14:24:00,
2013-02-14 09:30:00,40.3,31.3,30.05,NNW,347,1.0,-999.0,70,0.00,,,0.00,387,Wunderground v.1.15,2013-02-14 14:30:00,
2013-02-14 09:35:00,40.4,31.0,30.05,NNE,32,1.0,-999.0,69,0.00,,,0.00,487,Wunderground v.1.15,2013-02-14 14:35:00,
2013-02-14 09:41:00,40.6,30.5,30.05,NNW,340,1.0,-999.0,67,0.00,,,0.00,510,Wunderground v.1.15,2013-02-14 14:41:00,
2013-02-14 09:47:00,41.2,31.8,30.05,NW,309,1.0,-999.0,69,0.00,,,0.00,211,Wunderground v.1.15,2013-02-14 14:47:00,
2013-02-14 09:52:00,41.1,31.3,30.05,WNW,293,1.0,-999.0,68,0.00,,,0.00,443,Wunderground v.1.15,2013-02-14 14:52:00,
2013-02-14 09:58:00,41.4,30.9,30.05,WNW,303,1.0,-999.0,66,0.00,,,0.00,274,Wunderground v.1.15,2013-02-14 14:58:00,
2013-02-14 10:03:00,41.5,31.4,30.05,WNW,290,1.0,-999.0,67,0.00,,,0.00,345,Wunderground v.1.15,2013-02-14 15:03:00,
2013-02-14 10:09:00,41.8,31.3,30.05,NW,306,2.0,-999.0,66,0.00,,,0.00,464,Wunderground v.1.15,2013-02-14 15:09:00,
2013-02-14 10:14:00,42.6,31.7,30.05,NW,306,1.0,-999.0,65,0.00,,,0.00,594,Wunderground v.1.15,2013-02-14 15:14:00,
2013-02-14 10:20:00,42.4,30.7,30.04,North,350,1.0,-999.0,63,0.00,,,0.00,599,Wunderground v.1.15,2013-02-14 15:20:00,
2013-02-14 10:25:00,42.7,31.7,30.05,WNW,301,1.0,-999.0,65,0.00,,,0.00,601,Wunderground v.1.15,2013-02-14 15:25:00,
2013-02-14 10:30:00,42.6,30.5,30.05,WNW,303,2.0,-999.0,62,0.00,,,0.00,613,Wunderground v.1.15,2013-02-14 15:30:00,
2013-02-14 10:36:00,43.0,31.6,30.05,WNW,301,2.0,-999.0,64,0.00,,,0.00,624,Wunderground v.1.15,2013-02-14 15:36:00,
2013-02-14 10:41:00,43.8,31.6,30.04,SSE,163,1.0,-999.0,62,0.00,,,0.00,635,Wunderground v.1.15,2013-02-14 15:41:00,
2013-02-14 10:46:00,43.4,32.0,30.05,ENE,72,0.0,-999.0,64,0.00,,,0.00,647,Wunderground v.1.15,2013-02-14 15:46:00,
2013-02-14 10:51:00,43.7,31.5,30.05,WNW,284,1.0,-999.0,62,0.00,,,0.00,656,Wunderground v.1.15,2013-02-14 15:51:00,
2013-02-14 10:57:00,44.8,32.2,30.05,NNW,341,1.0,-999.0,61,0.00,,,0.00,671,Wunderground v.1.15,2013-02-14 15:57:00,
2013-02-14 11:02:00,43.6,30.2,30.05,ESE,110,1.0,-999.0,59,0.00,,,0.00,677,Wunderground v.1.15,2013-02-14 16:02:00,
2013-02-14 11:07:00,43.7,30.7,30.05,ESE,111,1.0,-999.0,60,0.00,,,0.00,684,Wunderground v.1.15,2013-02-14 16:07:00,
2013-02-14 11:13:00,44.5,31.5,30.05,NW,306,1.0,-999.0,60,0.00,,,0.00,675,Wunderground v.1.15,2013-02-14 16:13:00,
2013-02-14 11:18:00,44.6,31.1,30.04,West,269,2.0,-999.0,59,0.00,,,0.00,691,Wunderground v.1.15,2013-02-14 16:18:00,
2013-02-14 11:23:00,44.8,30.5,30.03,West,259,1.0,-999.0,57,0.00,,,0.00,719,Wunderground v.1.15,2013-02-14 16:23:00,
2013-02-14 11:29:00,44.9,29.7,30.03,NNW,337,2.0,-999.0,55,0.00,,,0.00,724,Wunderground v.1.15,2013-02-14 16:29:00,
2013-02-14 11:34:00,44.8,29.2,30.03,WSW,249,2.0,-999.0,54,0.00,,,0.00,726,Wunderground v.1.15,2013-02-14 16:34:00,
2013-02-14 11:39:00,45.3,30.1,30.03,West,265,1.0,-999.0,55,0.00,,,0.00,738,Wunderground v.1.15,2013-02-14 16:39:00,
2013-02-14 11:45:00,45.5,30.3,30.04,NNW,337,1.0,-999.0,55,0.00,,,0.00,686,Wunderground v.1.15,2013-02-14 16:45:00,
2013-02-14 11:50:00,46.3,30.1,30.03,North,355,0.0,-999.0,53,0.00,,,0.00,738,Wunderground v.1.15,2013-02-14 16:50:00,
2013-02-14 11:55:00,45.8,29.2,30.03,West,259,2.0,-999.0,52,0.00,,,0.00,745,Wunderground v.1.15,2013-02-14 16:55:00,
2013-02-14 12:00:00,46.1,30.8,30.03,NW,321,2.0,-999.0,55,0.00,,,0.00,747,Wunderground v.1.15,2013-02-14 17:00:00,
2013-02-14 12:06:00,47.4,31.1,30.03,SW,226,2.0,-999.0,53,0.00,,,0.00,754,Wunderground v.1.15,2013-02-14 17:06:00,
2013-02-14 12:11:00,47.3,30.5,30.03,West,260,2.0,-999.0,52,0.00,,,0.00,480,Wunderground v.1.15,2013-02-14 17:11:00,
2013-02-14 12:17:00,46.3,29.6,30.03,West,279,2.0,-999.0,52,0.00,,,0.00,708,Wunderground v.1.15,2013-02-14 17:17:00,
2013-02-14 12:23:00,46.9,30.6,30.02,WNW,292,1.0,-999.0,53,0.00,,,0.00,802,Wunderground v.1.15,2013-02-14 17:23:00,
2013-02-14 12:28:00,47.4,32.5,30.02,West,279,1.0,-999.0,56,0.00,,,0.00,752,Wunderground v.1.15,2013-02-14 17:28:00,
2013-02-14 12:33:00,48.6,31.8,30.02,WSW,255,1.0,-999.0,52,0.00,,,0.00,765,Wunderground v.1.15,2013-02-14 17:33:00,
2013-02-14 12:38:00,48.1,30.8,30.02,South,187,3.0,-999.0,51,0.00,,,0.00,853,Wunderground v.1.15,2013-02-14 17:38:00,
2013-02-14 12:43:00,48.0,30.2,30.01,South,187,2.0,-999.0,50,0.00,,,0.00,768,Wunderground v.1.15,2013-02-14 17:43:00,
2013-02-14 12:49:00,49.5,32.6,30.01,South,187,1.0,-999.0,52,0.00,,,0.00,795,Wunderground v.1.15,2013-02-14 17:49:00,
2013-02-14 12:54:00,50.5,32.0,30.01,SSW,200,0.0,-999.0,49,0.00,,,0.00,722,Wunderground v.1.15,2013-02-14 17:54:00,
2013-02-14 12:59:00,49.1,30.7,30.01,South,178,1.0,-999.0,49,0.00,,,0.00,316,Wunderground v.1.15,2013-02-14 17:59:00,
2013-02-14 13:05:00,49.6,31.7,30.01,SW,215,1.0,-999.0,50,0.00,,,0.00,789,Wunderground v.1.15,2013-02-14 18:05:00,
2013-02-14 13:10:00,49.8,31.4,30.01,WSW,247,3.0,-999.0,49,0.00,,,0.00,780,Wunderground v.1.15,2013-02-14 18:10:00,
2013-02-14 13:15:00,49.0,30.1,30.01,WNW,286,3.0,-999.0,48,0.00,,,0.00,798,Wunderground v.1.15,2013-02-14 18:15:00,
2013-02-14 13:20:00,49.7,32.3,30.01,South,188,2.0,-999.0,51,0.00,,,0.00,671,Wunderground v.1.15,2013-02-14 18:20:00,
2013-02-14 13:27:00,49.5,31.6,30.01,SSE,159,3.0,-999.0,50,0.00,,,0.00,584,Wunderground v.1.15,2013-02-14 18:27:00,
2013-02-14 13:32:00,50.2,31.2,30.01,SW,223,3.0,-999.0,48,0.00,,,0.00,721,Wunderground v.1.15,2013-02-14 18:32:00,
2013-02-14 13:37:00,50.3,31.3,30.00,East,98,3.0,-999.0,48,0.00,,,0.00,708,Wunderground v.1.15,2013-02-14 18:37:00,
2013-02-14 13:42:00,50.6,31.1,30.00,SE,145,2.0,-999.0,47,0.00,,,0.00,682,Wunderground v.1.15,2013-02-14 18:42:00,
2013-02-14 13:48:00,49.9,30.5,30.00,West,265,3.0,-999.0,47,0.00,,,0.00,701,Wunderground v.1.15,2013-02-14 18:48:00,
2013-02-14 13:53:00,50.9,31.9,30.00,WSW,237,4.0,-999.0,48,0.00,,,0.00,605,Wunderground v.1.15,2013-02-14 18:53:00,
2013-02-14 13:58:00,51.5,32.4,29.99,SW,236,2.0,-999.0,48,0.00,,,0.00,686,Wunderground v.1.15,2013-02-14 18:58:00,
2013-02-14 14:04:00,52.7,33.0,29.99,SW,227,1.0,-999.0,47,0.00,,,0.00,645,Wunderground v.1.15,2013-02-14 19:04:00,
2013-02-14 14:09:00,52.0,32.4,29.98,WSW,248,1.0,-999.0,47,0.00,,,0.00,663,Wunderground v.1.15,2013-02-14 19:09:00,
2013-02-14 14:14:00,51.4,32.3,29.98,West,263,2.0,-999.0,48,0.00,,,0.00,647,Wunderground v.1.15,2013-02-14 19:14:00,
2013-02-14 14:19:00,52.0,32.9,29.98,South,181,2.0,-999.0,48,0.00,,,0.00,631,Wunderground v.1.15,2013-02-14 19:19:00,
2013-02-14 14:25:00,52.5,33.9,29.98,South,172,2.0,-999.0,49,0.00,,,0.00,615,Wunderground v.1.15,2013-02-14 19:25:00,
2013-02-14 14:30:00,51.9,32.8,29.98,SSE,163,3.0,-999.0,48,0.00,,,0.00,605,Wunderground v.1.15,2013-02-14 19:30:00,
2013-02-14 14:35:00,51.2,32.7,29.98,SSE,161,3.0,-999.0,49,0.00,,,0.00,598,Wunderground v.1.15,2013-02-14 19:35:00,
2013-02-14 14:40:00,51.3,33.3,29.98,SE,142,3.0,-999.0,50,0.00,,,0.00,582,Wunderground v.1.15,2013-02-14 19:40:00,
2013-02-14 14:46:00,52.2,33.1,29.96,SSW,207,2.0,-999.0,48,0.00,,,0.00,575,Wunderground v.1.15,2013-02-14 19:46:00,
2013-02-14 14:51:00,52.3,34.2,29.97,SW,219,3.0,-999.0,50,0.00,,,0.00,570,Wunderground v.1.15,2013-02-14 19:51:00,
2013-02-14 14:56:00,52.0,33.4,29.97,West,277,4.0,-999.0,49,0.00,,,0.00,452,Wunderground v.1.15,2013-02-14 19:56:00,
2013-02-14 15:02:00,51.9,32.8,29.97,SSW,213,3.0,-999.0,48,0.00,,,0.00,341,Wunderground v.1.15,2013-02-14 20:02:00,
2013-02-14 15:07:00,51.4,33.4,29.97,South,186,3.0,-999.0,50,0.00,,,0.00,353,Wunderground v.1.15,2013-02-14 20:07:00,
2013-02-14 15:12:00,52.1,33.5,29.97,SW,227,3.0,-999.0,49,0.00,,,0.00,309,Wunderground v.1.15,2013-02-14 20:12:00,
2013-02-14 15:18:00,51.6,33.6,29.97,WSW,240,3.0,-999.0,50,0.00,,,0.00,343,Wunderground v.1.15,2013-02-14 20:18:00,
2013-02-14 15:23:00,51.4,32.9,29.97,SSW,200,3.0,-999.0,49,0.00,,,0.00,410,Wunderground v.1.15,2013-02-14 20:23:00,
2013-02-14 15:28:00,51.5,33.5,29.98,West,269,3.0,-999.0,50,0.00,,,0.00,475,Wunderground v.1.15,2013-02-14 20:28:00,
2013-02-14 15:34:00,51.7,33.6,29.98,SSW,213,3.0,-999.0,50,0.00,,,0.00,211,Wunderground v.1.15,2013-02-14 20:34:00,
2013-02-14 15:39:00,51.8,33.7,29.97,SW,225,3.0,-999.0,50,0.00,,,0.00,418,Wunderground v.1.15,2013-02-14 20:39:00,
2013-02-14 15:44:00,51.9,33.3,29.98,South,190,3.0,-999.0,49,0.00,,,0.00,236,Wunderground v.1.15,2013-02-14 20:44:00,
2013-02-14 15:49:00,51.5,33.5,29.98,WSW,257,3.0,-999.0,50,0.00,,,0.00,257,Wunderground v.1.15,2013-02-14 20:49:00,
2013-02-14 15:55:00,51.3,32.8,29.98,SSW,213,3.0,-999.0,49,0.00,,,0.00,302,Wunderground v.1.15,2013-02-14 20:55:00,
2013-02-14 16:00:00,51.5,33.5,29.98,WSW,258,3.0,-999.0,50,0.00,,,0.00,283,Wunderground v.1.15,2013-02-14 21:00:00,
2013-02-14 16:06:00,51.2,33.2,29.98,South,190,2.0,-999.0,50,0.00,,,0.00,251,Wunderground v.1.15,2013-02-14 21:06:00,
2013-02-14 16:12:00,50.9,33.4,29.98,SSW,200,3.0,-999.0,51,0.00,,,0.00,206,Wunderground v.1.15,2013-02-14 21:12:00,
2013-02-14 16:17:00,51.0,34.0,29.98,WSW,245,3.0,-999.0,52,0.00,,,0.00,179,Wunderground v.1.15,2013-02-14 21:17:00,
2013-02-14 16:23:00,50.9,33.4,29.99,SW,223,4.0,-999.0,51,0.00,,,0.00,200,Wunderground v.1.15,2013-02-14 21:23:00,
2013-02-14 16:28:00,50.8,33.8,29.99,SW,232,4.0,-999.0,52,0.00,,,0.00,179,Wunderground v.1.15,2013-02-14 21:28:00,
2013-02-14 16:33:00,50.7,33.7,29.99,SW,232,4.0,-999.0,52,0.00,,,0.00,132,Wunderground v.1.15,2013-02-14 21:33:00,
2013-02-14 16:39:00,50.7,33.7,29.99,SSW,208,3.0,-999.0,52,0.00,,,0.00,153,Wunderground v.1.15,2013-02-14 21:39:00,
2013-02-14 16:44:00,50.4,33.4,29.99,West,267,3.0,-999.0,52,0.00,,,0.00,109,Wunderground v.1.15,2013-02-14 21:44:00,
2013-02-14 16:49:00,50.3,33.8,29.99,SW,217,3.0,-999.0,53,0.00,,,0.00,105,Wunderground v.1.15,2013-02-14 21:49:00,
2013-02-14 16:55:00,50.2,34.2,29.98,SW,222,2.0,-999.0,54,0.00,,,0.00,102,Wunderground v.1.15,2013-02-14 21:55:00,
2013-02-14 17:01:00,50.1,34.1,29.99,SW,220,2.0,-999.0,54,0.00,,,0.00,111,Wunderground v.1.15,2013-02-14 22:01:00,
2013-02-14 17:06:00,50.0,34.0,29.98,SSW,192,3.0,-999.0,54,0.00,,,0.00,84,Wunderground v.1.15,2013-02-14 22:06:00,
2013-02-14 17:11:00,49.9,34.4,29.98,WSW,238,2.0,-999.0,55,0.00,,,0.00,97,Wunderground v.1.15,2013-02-14 22:11:00,
2013-02-14 17:16:00,49.8,34.3,29.98,SSW,197,1.0,-999.0,55,0.00,,,0.00,90,Wunderground v.1.15,2013-02-14 22:16:00,
2013-02-14 17:22:00,49.7,34.2,29.98,South,188,1.0,-999.0,55,0.00,,,0.00,83,Wunderground v.1.15,2013-02-14 22:22:00,
2013-02-14 17:27:00,49.6,34.1,29.98,SSE,166,2.0,-999.0,55,0.00,,,0.00,65,Wunderground v.1.15,2013-02-14 22:27:00,
2013-02-14 17:32:00,49.5,34.4,29.98,SSE,164,2.0,-999.0,56,0.00,,,0.00,46,Wunderground v.1.15,2013-02-14 22:32:00,
2013-02-14 17:37:00,49.4,34.3,29.98,SW,218,1.0,-999.0,56,0.00,,,0.00,32,Wunderground v.1.15,2013-02-14 22:37:00,
2013-02-14 17:43:00,49.2,34.2,29.98,SW,225,2.0,-999.0,56,0.00,,,0.00,26,Wunderground v.1.15,2013-02-14 22:43:00,
2013-02-14 17:48:00,49.2,34.2,29.98,SW,227,2.0,-999.0,56,0.00,,,0.00,19,Wunderground v.1.15,2013-02-14 22:48:00,
2013-02-14 17:53:00,49.1,34.5,29.98,SW,227,1.0,-999.0,57,0.00,,,0.00,12,Wunderground v.1.15,2013-02-14 22:53:00,
2013-02-14 17:58:00,49.0,34.4,29.98,SW,225,1.0,-999.0,57,0.00,,,0.00,9,Wunderground v.1.15,2013-02-14 22:58:00,
2013-02-14 18:04:00,48.8,34.2,29.98,SW,219,1.0,-999.0,57,0.00,,,0.00,9,Wunderground v.1.15,2013-02-14 23:04:00,
2013-02-14 18:09:00,48.6,34.5,29.98,SW,219,1.0,-999.0,58,0.00,,,0.00,0,Wunderground v.1.15,2013-02-14 23:09:00,
2013-02-14 18:14:00,48.4,34.3,29.98,SW,219,0.0,-999.0,58,0.00,,,0.00,0,Wunderground v.1.15,2013-02-14 23:14:00,
2013-02-14 18:19:00,48.3,34.6,29.99,SW,219,0.0,-999.0,59,0.00,,,0.00,0,Wunderground v.1.15,2013-02-14 23:19:00,
2013-02-14 18:24:00,48.1,34.4,29.99,SW,219,0.0,-999.0,59,0.00,,,0.00,0,Wunderground v.1.15,2013-02-14 23:24:00,
2013-02-14 18:30:00,47.8,34.6,29.99,SW,219,0.0,-999.0,60,0.00,,,0.00,0,Wunderground v.1.15,2013-02-14 23:30:00,
2013-02-14 18:35:00,47.5,34.3,29.99,SW,219,0.0,-999.0,60,0.00,,,0.00,0,Wunderground v.1.15,2013-02-14 23:35:00,
2013-02-14 18:40:00,47.2,34.4,29.99,SW,219,0.0,-999.0,61,0.00,,,0.00,0,Wunderground v.1.15,2013-02-14 23:40:00,
2013-02-14 18:46:00,47.0,34.2,30.00,SW,219,0.0,-999.0,61,0.00,,,0.00,0,Wunderground v.1.15,2013-02-14 23:46:00,
2013-02-14 18:51:00,46.7,34.0,30.00,SW,219,0.0,-999.0,61,0.00,,,0.00,0,Wunderground v.1.15,2013-02-14 23:51:00,
2013-02-14 18:56:00,46.4,34.1,30.00,SW,219,0.0,-999.0,62,0.00,,,0.00,0,Wunderground v.1.15,2013-02-14 23:56:00,
2013-02-14 19:02:00,46.0,34.1,30.00,SW,219,0.0,-999.0,63,0.00,,,0.00,0,Wunderground v.1.15,2013-02-15 00:02:00,
2013-02-14 19:07:00,45.6,33.7,30.00,SW,219,0.0,-999.0,63,0.00,,,0.00,0,Wunderground v.1.15,2013-02-15 00:07:00,
2013-02-14 19:12:00,45.4,33.5,30.00,SW,219,0.0,-999.0,63,0.00,,,0.00,0,Wunderground v.1.15,2013-02-15 00:12:00,
2013-02-14 19:17:00,45.0,33.5,30.00,SW,219,0.0,-999.0,64,0.00,,,0.00,0,Wunderground v.1.15,2013-02-15 00:17:00,
2013-02-14 19:22:00,44.7,33.6,30.00,SW,219,0.0,-999.0,65,0.00,,,0.00,0,Wunderground v.1.15,2013-02-15 00:22:00,
2013-02-14 19:28:00,44.3,33.7,30.00,SW,219,0.0,-999.0,66,0.00,,,0.00,0,Wunderground v.1.15,2013-02-15 00:28:00,
2013-02-14 19:34:00,44.0,33.4,30.00,SW,219,0.0,-999.0,66,0.00,,,0.00,0,Wunderground v.1.15,2013-02-15 00:34:00,
2013-02-14 19:39:00,43.8,33.6,30.00,SW,219,0.0,-999.0,67,0.00,,,0.00,0,Wunderground v.1.15,2013-02-15 00:39:00,
2013-02-14 19:44:00,43.6,33.4,30.00,SW,219,0.0,-999.0,67,0.00,,,0.00,0,Wunderground v.1.15,2013-02-15 00:44:00,
2013-02-14 19:50:00,43.4,33.5,30.00,SW,219,0.0,-999.0,68,0.00,,,0.00,0,Wunderground v.1.15,2013-02-15 00:50:00,
2013-02-14 19:55:00,43.4,33.5,30.00,SW,219,0.0,-999.0,68,0.00,,,0.00,0,Wunderground v.1.15,2013-02-15 00:55:00,
2013-02-14 20:00:00,43.3,33.4,30.00,SW,219,0.0,-999.0,68,0.00,,,0.00,0,Wunderground v.1.15,2013-02-15 01:00:00,
2013-02-14 20:06:00,43.2,33.3,30.00,SW,219,0.0,-999.0,68,0.00,,,0.00,0,Wunderground v.1.15,2013-02-15 01:06:00,
2013-02-14 20:11:00,43.1,33.6,30.00,SW,219,0.0,-999.0,69,0.00,,,0.00,0,Wunderground v.1.15,2013-02-15 01:11:00,
2013-02-14 20:16:00,43.0,33.2,30.00,SW,219,0.0,-999.0,68,0.00,,,0.00,0,Wunderground v.1.15,2013-02-15 01:16:00,
2013-02-14 20:21:00,42.9,33.4,30.00,SW,219,0.0,-999.0,69,0.00,,,0.00,0,Wunderground v.1.15,2013-02-15 01:21:00,
2013-02-14 20:27:00,42.7,33.2,30.00,SW,219,0.0,-999.0,69,0.00,,,0.00,0,Wunderground v.1.15,2013-02-15 01:27:00,
2013-02-14 20:32:00,42.4,33.3,30.01,SW,219,0.0,-999.0,70,0.00,,,0.00,0,Wunderground v.1.15,2013-02-15 01:32:00,
2013-02-14 20:38:00,42.2,33.1,30.01,SW,219,0.0,-999.0,70,0.00,,,0.00,0,Wunderground v.1.15,2013-02-15 01:38:00,
2013-02-14 20:43:00,42.0,32.6,30.02,SW,219,0.0,-999.0,69,0.00,,,0.00,0,Wunderground v.1.15,2013-02-15 01:43:00,
2013-02-14 20:48:00,41.8,32.4,30.02,SW,219,0.0,-999.0,69,0.00,,,0.00,0,Wunderground v.1.15,2013-02-15 01:48:00,
2013-02-14 20:53:00,41.6,32.5,30.03,SW,219,0.0,-999.0,70,0.00,,,0.00,0,Wunderground v.1.15,2013-02-15 01:53:00,
2013-02-14 20:59:00,41.4,32.3,30.03,SW,219,0.0,-999.0,70,0.00,,,0.00,0,Wunderground v.1.15,2013-02-15 01:59:00,
2013-02-14 21:04:00,41.1,32.1,30.03,SW,219,0.0,-999.0,70,0.00,,,0.00,0,Wunderground v.1.15,2013-02-15 02:04:00,
2013-02-14 21:09:00,41.0,32.3,30.03,SW,219,0.0,-999.0,71,0.00,,,0.00,0,Wunderground v.1.15,2013-02-15 02:09:00,
2013-02-14 21:14:00,40.8,32.5,30.03,SW,219,0.0,-999.0,72,0.00,,,0.00,0,Wunderground v.1.15,2013-02-15 02:14:00,
2013-02-14 21:20:00,40.6,32.3,30.03,SW,219,0.0,-999.0,72,0.00,,,0.00,0,Wunderground v.1.15,2013-02-15 02:20:00,
2013-02-14 21:25:00,40.4,32.1,30.03,SW,219,0.0,-999.0,72,0.00,,,0.00,0,Wunderground v.1.15,2013-02-15 02:25:00,
2013-02-14 21:30:00,40.2,32.2,30.04,SW,219,0.0,-999.0,73,0.00,,,0.00,0,Wunderground v.1.15,2013-02-15 02:30:00,
2013-02-14 21:36:00,39.8,31.8,30.04,SW,219,0.0,-999.0,73,0.00,,,0.00,0,Wunderground v.1.15,2013-02-15 02:36:00,
2013-02-14 21:41:00,39.7,32.1,30.04,SW,219,0.0,-999.0,74,0.00,,,0.00,0,Wunderground v.1.15,2013-02-15 02:41:00,
2013-02-14 21:47:00,39.4,31.8,30.05,SW,219,0.0,-999.0,74,0.00,,,0.00,0,Wunderground v.1.15,2013-02-15 02:47:00,
2013-02-14 21:52:00,39.2,31.6,30.05,SW,219,0.0,-999.0,74,0.00,,,0.00,0,Wunderground v.1.15,2013-02-15 02:52:00,
2013-02-14 21:57:00,38.9,31.6,30.05,SW,219,0.0,-999.0,75,0.00,,,0.00,0,Wunderground v.1.15,2013-02-15 02:57:00,
2013-02-14 22:03:00,38.7,31.8,30.05,SW,219,0.0,-999.0,76,0.00,,,0.00,0,Wunderground v.1.15,2013-02-15 03:03:00,
2013-02-14 22:08:00,38.5,31.6,30.05,SW,219,0.0,-999.0,76,0.00,,,0.00,0,Wunderground v.1.15,2013-02-15 03:08:00,
2013-02-14 22:13:00,38.4,31.8,30.05,SW,219,0.0,-999.0,77,0.00,,,0.00,0,Wunderground v.1.15,2013-02-15 03:13:00,
2013-02-14 22:18:00,38.4,32.1,30.05,SW,219,0.0,-999.0,78,0.00,,,0.00,0,Wunderground v.1.15,2013-02-15 03:18:00,
2013-02-14 22:24:00,38.5,32.2,30.05,SW,219,0.0,-999.0,78,0.00,,,0.00,0,Wunderground v.1.15,2013-02-15 03:24:00,
2013-02-14 22:29:00,38.6,32.3,30.05,SW,219,0.0,-999.0,78,0.00,,,0.00,0,Wunderground v.1.15,2013-02-15 03:29:00,
2013-02-14 22:34:00,38.8,32.5,30.04,SW,219,0.0,-999.0,78,0.00,,,0.00,0,Wunderground v.1.15,2013-02-15 03:34:00,
2013-02-14 22:39:00,38.9,32.3,30.04,SW,219,0.0,-999.0,77,0.00,,,0.00,0,Wunderground v.1.15,2013-02-15 03:39:00,
2013-02-14 22:45:00,39.0,32.4,30.04,SW,219,0.0,-999.0,77,0.00,,,0.00,0,Wunderground v.1.15,2013-02-15 03:45:00,
2013-02-14 22:50:00,39.1,32.5,30.04,SW,219,0.0,-999.0,77,0.00,,,0.00,0,Wunderground v.1.15,2013-02-15 03:50:00,
2013-02-14 22:55:00,39.2,32.6,30.04,SW,219,0.0,-999.0,77,0.00,,,0.00,0,Wunderground v.1.15,2013-02-15 03:55:00,
2013-02-14 23:01:00,39.1,32.5,30.04,SW,219,0.0,-999.0,77,0.00,,,0.00,0,Wunderground v.1.15,2013-02-15 04:01:00,
2013-02-14 23:06:00,39.1,32.5,30.04,SW,219,0.0,-999.0,77,0.00,,,0.00,0,Wunderground v.1.15,2013-02-15 04:06:00,
2013-02-14 23:11:00,39.1,32.5,30.04,SW,219,0.0,-999.0,77,0.00,,,0.00,0,Wunderground v.1.15,2013-02-15 04:11:00,
2013-02-14 23:17:00,39.1,32.5,30.04,SW,219,0.0,-999.0,77,0.00,,,0.00,0,Wunderground v.1.15,2013-02-15 04:17:00,
2013-02-14 23:22:00,39.1,32.5,30.03,SW,219,0.0,-999.0,77,0.00,,,0.00,0,Wunderground v.1.15,2013-02-15 04:22:00,
2013-02-14 23:27:00,39.0,32.4,30.04,SW,219,0.0,-999.0,77,0.00,,,0.00,0,Wunderground v.1.15,2013-02-15 04:27:00,
2013-02-14 23:33:00,38.9,32.3,30.03,SW,219,0.0,-999.0,77,0.00,,,0.00,0,Wunderground v.1.15,2013-02-15 04:33:00,
2013-02-14 23:38:00,38.8,32.2,30.03,SW,219,0.0,-999.0,77,0.00,,,0.00,0,Wunderground v.1.15,2013-02-15 04:38:00,
2013-02-14 23:43:00,38.7,32.1,30.03,SW,219,0.0,-999.0,77,0.00,,,0.00,0,Wunderground v.1.15,2013-02-15 04:43:00,
2013-02-14 23:48:00,38.6,32.3,30.03,SW,219,0.0,-999.0,78,0.00,,,0.00,0,Wunderground v.1.15,2013-02-15 04:48:00,
2013-02-14 23:54:00,38.4,32.1,30.03,SW,219,0.0,-999.0,78,0.00,,,0.00,0,Wunderground v.1.15,2013-02-15 04:54:00,
2013-02-14 23:59:00,38.2,31.9,30.04,SW,219,0.0,-999.0,78,0.00,,,0.00,0,Wunderground v.1.15,2013-02-15 04:59:00,